createdAt,value
2022-08-16T00:00:38.490Z,-25.7
2022-08-16T00:02:38.783Z,-25.8
2022-08-16T00:04:40.117Z,-25.4
2022-08-16T00:06:41.462Z,-25.4
2022-08-16T00:08:42.649Z,-25.5
2022-08-16T00:10:43.676Z,-25.9
2022-08-16T00:12:45.385Z,-25.8
2022-08-16T00:14:46.596Z,-25.9
2022-08-16T00:16:58.378Z,-25.8
2022-08-16T00:18:48.773Z,-25.8
2022-08-16T00:20:50.631Z,-25.6
2022-08-16T00:22:51.368Z,-25.6
2022-08-16T00:24:52.572Z,-25.5
2022-08-16T00:26:53.650Z,-25.5
2022-08-16T00:28:55.113Z,-25.8
2022-08-16T00:30:56.610Z,-25.7
2022-08-16T00:35:00.420Z,-25.5
2022-08-16T00:37:00.409Z,-25.7
2022-08-16T00:39:01.433Z,-25.6
2022-08-16T00:41:05.920Z,-25.6
2022-08-16T00:43:04.813Z,-25.4
2022-08-16T00:45:08.570Z,-25.7
2022-08-16T00:47:07.799Z,-25.7
2022-08-16T00:49:17.203Z,-25.6
2022-08-16T00:51:10.228Z,-25.4
2022-08-16T00:57:14.813Z,-25.9
2022-08-16T00:59:16.115Z,-25.6
2022-08-16T01:01:17.346Z,-25.6
2022-08-16T01:03:19.035Z,-25.8
2022-08-16T01:05:23.921Z,-25.5
2022-08-16T01:07:21.400Z,-25.7
2022-08-16T01:09:23.103Z,-25.8
2022-08-16T01:11:24.146Z,-25.7
2022-08-16T01:15:27.507Z,-25.8
2022-08-16T01:17:28.702Z,-25.9
2022-08-16T01:19:30.248Z,-25.6
2022-08-16T01:21:33.511Z,-25.7
2022-08-16T01:23:58.320Z,-25.9
2022-08-16T01:27:35.510Z,-25.5
2022-08-16T01:29:57.470Z,-25.8
2022-08-16T01:33:40.152Z,-25.7
2022-08-16T01:37:43.172Z,-25.9
2022-08-16T01:39:44.437Z,-25.5
2022-08-16T01:41:45.852Z,-26.1
2022-08-16T01:43:47.118Z,-25.4
2022-08-16T01:45:48.772Z,-25.5
2022-08-16T01:47:51.133Z,-25.7
2022-08-16T01:50:40.826Z,-25.5
2022-08-16T01:53:54.819Z,-25.7
2022-08-16T01:55:55.743Z,-25.8
2022-08-16T01:57:57.352Z,-25.6
2022-08-16T01:59:58.587Z,-25.8
2022-08-16T02:02:00.548Z,-25.7
2022-08-16T02:04:10.162Z,-25.7
2022-08-16T02:06:02.596Z,-25.8
2022-08-16T02:10:05.308Z,-25.8
2022-08-16T02:12:39.958Z,-25.7
2022-08-16T02:14:17.897Z,-25.9
2022-08-16T02:16:18.229Z,-25.7
2022-08-16T02:21:17.240Z,-25.5
2022-08-16T02:22:33.279Z,-25.8
2022-08-16T02:26:16.993Z,-25.8
2022-08-16T02:28:19.232Z,-25.8
2022-08-16T02:30:36.192Z,-25.6
2022-08-16T02:32:49.476Z,-25.8
2022-08-16T02:34:32.872Z,-25.6
2022-08-16T02:36:48.310Z,-25.9
2022-08-16T02:38:23.980Z,-25.8
2022-08-16T02:40:25.675Z,-25.9
2022-08-16T02:42:27.101Z,-25.7
2022-08-16T02:44:28.356Z,-25.5
2022-08-16T02:46:29.880Z,-25.7
2022-08-16T02:48:31.334Z,-25.8
2022-08-16T02:50:55.622Z,-25.5
2022-08-16T02:52:34.530Z,-25.7
2022-08-16T02:54:36.734Z,-25.7
2022-08-16T02:56:37.960Z,-25.5
2022-08-16T02:58:39.134Z,-25.8
2022-08-16T03:00:40.305Z,-25.8
2022-08-16T03:04:50.149Z,-26.2
2022-08-16T03:06:44.411Z,-25.9
2022-08-16T03:08:50.066Z,-26
2022-08-16T03:10:47.926Z,-26.3
2022-08-16T03:12:55.826Z,-26.1
2022-08-16T03:14:50.714Z,-26.1
2022-08-16T03:20:55.616Z,-26
2022-08-16T03:23:35.668Z,-26
2022-08-16T03:26:02.198Z,-26
2022-08-16T03:27:06.080Z,-25.8
2022-08-16T03:33:01.975Z,-26
2022-08-16T03:35:03.300Z,-25.6
2022-08-16T03:37:04.428Z,-26.3
2022-08-16T03:41:14.188Z,-26
2022-08-16T03:43:19.507Z,-26.1
2022-08-16T03:45:10.718Z,-25.9
2022-08-16T03:47:12.390Z,-26
2022-08-16T03:49:13.361Z,-26.1
2022-08-16T03:51:14.511Z,-26
2022-08-16T03:53:16.192Z,-25.9
2022-08-16T03:59:21.077Z,-26
2022-08-16T04:01:22.406Z,-26.1
2022-08-16T04:03:23.836Z,-26.1
2022-08-16T04:05:25.284Z,-26
2022-08-16T04:07:26.440Z,-25.7
2022-08-16T04:09:28.225Z,-26.3
2022-08-16T04:13:59.554Z,-26
2022-08-16T04:15:32.497Z,-26.2
2022-08-16T04:17:35.125Z,-26.1
2022-08-16T04:19:34.971Z,-26
2022-08-16T04:23:37.623Z,-26.3
2022-08-16T04:25:38.666Z,-26
2022-08-16T04:27:40.584Z,-25.9
2022-08-16T04:29:43.898Z,-26.5
2022-08-16T04:33:50.803Z,-26.1
2022-08-16T04:35:49.461Z,-26.1
2022-08-16T04:37:47.501Z,-26.2
2022-08-16T04:39:55.507Z,-26.2
2022-08-16T04:43:51.745Z,-26.2
2022-08-16T04:45:55.109Z,-26.1
2022-08-16T04:47:55.946Z,-25.8
2022-08-16T04:49:56.664Z,-25.8
2022-08-16T04:51:58.552Z,-25.6
2022-08-16T04:53:59.682Z,-26.1
2022-08-16T04:56:01.431Z,-26.2
2022-08-16T05:02:21.449Z,-25.9
2022-08-16T05:04:09.433Z,-25.7
2022-08-16T05:06:09.335Z,-25.8
2022-08-16T05:08:28.676Z,-22.6
2022-08-16T05:10:19.737Z,-17.4
2022-08-16T05:12:13.580Z,-14.1
2022-08-16T05:14:20.101Z,-12.1
2022-08-16T05:16:16.837Z,-15.1
2022-08-16T05:18:20.926Z,-18.7
2022-08-16T05:20:35.485Z,-25.8
2022-08-16T05:22:20.353Z,-25.8
2022-08-16T05:24:22.028Z,-24.3
2022-08-16T05:26:22.762Z,-15.8
2022-08-16T05:28:30.774Z,-7.3
2022-08-16T05:32:33.065Z,-4.69
2022-08-16T05:34:28.794Z,-2.2
2022-08-16T05:36:33.724Z,3.6
2022-08-16T05:38:33.409Z,16.2
2022-08-16T05:40:33.192Z,2.4
2022-08-16T05:42:35.755Z,14.5
2022-08-16T05:43:17.798Z,20.8
2022-08-16T05:49:22.151Z,34.5
2022-08-16T05:51:23.529Z,29.5
2022-08-16T05:53:24.260Z,38.4
2022-08-16T05:55:25.114Z,42.4
2022-08-16T05:57:26.210Z,45.4
2022-08-16T05:59:27.818Z,51.7
2022-08-16T06:01:28.948Z,56.6
2022-08-16T06:03:30.313Z,60.3
2022-08-16T06:05:31.663Z,63.8
2022-08-16T06:11:35.396Z,73.19
2022-08-16T06:13:37.016Z,72.6
2022-08-16T06:15:38.366Z,71.5
2022-08-16T06:19:42.793Z,70
2022-08-16T06:21:41.899Z,68.69
2022-08-16T06:25:44.287Z,67.1
2022-08-16T06:27:57.054Z,66.3
2022-08-16T06:31:49.282Z,64.5
2022-08-16T06:35:50.666Z,62.2
2022-08-16T06:37:52.483Z,60.8
2022-08-16T06:39:53.312Z,59.6
2022-08-16T06:41:54.440Z,58.4
2022-08-16T06:43:56.196Z,56.7
2022-08-16T06:45:57.556Z,55.4
2022-08-16T06:47:58.759Z,53.8
2022-08-16T06:49:59.728Z,52.3
2022-08-16T06:52:02.820Z,50.4
2022-08-16T06:54:02.657Z,49.1
2022-08-16T06:56:03.720Z,47.3
2022-08-16T06:58:08.268Z,45.9
2022-08-16T07:00:05.378Z,44.1
2022-08-16T07:02:07.060Z,42.3
2022-08-16T07:04:10.342Z,41.4
2022-08-16T07:06:09.191Z,39.59
2022-08-16T07:08:11.321Z,37.5
2022-08-16T07:10:11.813Z,36.59
2022-08-16T07:12:15.350Z,34.59
2022-08-16T07:14:23.025Z,33.59
2022-08-16T07:16:15.732Z,31.4
2022-08-16T07:18:17.378Z,30.6
2022-08-16T07:20:29.448Z,29.1
2022-08-16T07:22:38.526Z,25.3
2022-08-16T07:24:26.869Z,25.4
2022-08-16T07:26:24.345Z,22.8
2022-08-16T07:28:24.488Z,22.7
2022-08-16T07:30:40.026Z,22
2022-08-16T07:32:29.364Z,20.1
2022-08-16T07:34:35.458Z,17.9
2022-08-16T07:36:27.051Z,17.6
2022-08-16T07:38:31.904Z,17.79
2022-08-16T07:40:49.491Z,15.9
2022-08-16T07:42:34.921Z,15.1
2022-08-16T07:44:37.571Z,14.2
2022-08-16T07:46:38.220Z,14.1
2022-08-16T07:52:38.763Z,11
2022-08-16T07:54:39.336Z,10.1
2022-08-16T07:56:39.965Z,9.8
2022-08-16T07:58:41.012Z,8.39
2022-08-16T08:00:42.111Z,-25.4
2022-08-16T08:02:42.842Z,-25.7
2022-08-16T08:04:44.188Z,-25.6
2022-08-16T08:06:45.150Z,-25.5
2022-08-16T08:10:47.818Z,-25.4
2022-08-16T08:12:49.554Z,-25.4
2022-08-16T08:18:56.003Z,-25.8
2022-08-16T08:20:59.094Z,-25.5
2022-08-16T08:23:00.154Z,-25.4
2022-08-16T08:24:59.003Z,-25.4
2022-08-16T08:26:58.806Z,-25.6
2022-08-16T08:29:00.861Z,-25.5
2022-08-16T08:31:02.485Z,-25.5
2022-08-16T08:33:02.559Z,-25.6
2022-08-16T08:35:04.227Z,-25.5
2022-08-16T08:37:04.631Z,-25.7
2022-08-16T08:39:12.434Z,-25.5
2022-08-16T08:41:06.794Z,-25.6
2022-08-16T08:43:11.646Z,-25.5
2022-08-16T08:45:16.631Z,-25.6
2022-08-16T08:47:11.680Z,-25.9
2022-08-16T08:49:12.751Z,-25.5
2022-08-16T08:51:14.118Z,-25.3
2022-08-16T08:53:15.451Z,-25.3
2022-08-16T08:55:17.035Z,-25.5
2022-08-16T08:57:18.024Z,-25.5
2022-08-16T08:59:19.968Z,-25.7
2022-08-16T09:01:31.537Z,-25.7
2022-08-16T09:03:22.189Z,-25.4
2022-08-16T09:05:23.525Z,-25.6
2022-08-16T09:07:25.607Z,-25.4
2022-08-16T09:09:26.556Z,-25.5
2022-08-16T09:11:34.372Z,-25.4
2022-08-16T09:13:32.766Z,-25.6
2022-08-16T09:21:35.061Z,-25.5
2022-08-16T09:23:37.012Z,-25.7
2022-08-16T09:25:37.663Z,-25.5
2022-08-16T09:27:46.617Z,-25.5
2022-08-16T09:29:44.318Z,-25.5
2022-08-16T09:31:41.008Z,-25.6
2022-08-16T09:33:42.317Z,-25.4
2022-08-16T09:35:43.172Z,-25.5
2022-08-16T09:37:44.130Z,-25.3
2022-08-16T09:39:49.691Z,-25.5
2022-08-16T09:41:53.005Z,-25.5
2022-08-16T09:43:58.889Z,-25.5
2022-08-16T09:45:50.402Z,-25.7
2022-08-16T09:47:55.503Z,-25.6
2022-08-16T09:49:52.529Z,-25.5
2022-08-16T09:53:55.652Z,-25.7
2022-08-16T09:55:57.979Z,-25.8
2022-08-16T09:57:58.833Z,-25.5
2022-08-16T10:00:00.278Z,-25.5
2022-08-16T10:02:23.092Z,-25.3
2022-08-16T10:04:04.245Z,-25.5
2022-08-16T10:06:03.781Z,-25.7
2022-08-16T10:08:25.551Z,-25.5
2022-08-16T10:10:09.755Z,-25.5
2022-08-16T10:18:41.238Z,-25.4
2022-08-16T10:20:13.749Z,-25.6
2022-08-16T10:24:14.633Z,-25.6
2022-08-16T10:27:00.278Z,-25.6
2022-08-16T10:28:28.411Z,-25.5
2022-08-16T10:30:24.585Z,-25.5
2022-08-16T10:32:20.911Z,-25.7
2022-08-16T10:34:30.671Z,-25.6
2022-08-16T10:36:37.930Z,-25.7
2022-08-16T10:38:26.894Z,-25.1
2022-08-16T10:40:28.890Z,-25.2
2022-08-16T10:42:26.680Z,-25.3
2022-08-16T10:46:33.942Z,-25.6
2022-08-16T10:48:30.018Z,-25.3
2022-08-16T10:50:32.003Z,-25.5
2022-08-16T10:56:51.628Z,-25.4
2022-08-16T10:58:38.623Z,-25.7
2022-08-16T11:00:40.164Z,-25.8
2022-08-16T11:02:57.271Z,-25.5
2022-08-16T11:05:06.631Z,-25.2
2022-08-16T11:07:06.443Z,-25.6
2022-08-16T11:08:45.896Z,-25.6
2022-08-16T11:11:05.674Z,-25.8
2022-08-16T11:12:49.096Z,-25.5
2022-08-16T11:15:12.427Z,-25.5
2022-08-16T11:17:09.383Z,-25.5
2022-08-16T11:19:03.367Z,-25.7
2022-08-16T11:20:54.893Z,-25.7
2022-08-16T11:22:56.622Z,-25.4
2022-08-16T11:25:12.483Z,-25.4
2022-08-16T11:27:21.456Z,-25.7
2022-08-16T11:35:10.110Z,-25.6
2022-08-16T11:41:07.550Z,-25.4
2022-08-16T11:43:09.930Z,-25.5
2022-08-16T11:45:09.781Z,-25.4
2022-08-16T11:47:11.424Z,-25.6
2022-08-16T11:49:13.797Z,-25.6
2022-08-16T11:51:13.831Z,-25.5
2022-08-16T11:57:18.228Z,-25.6
2022-08-16T11:59:19.164Z,-25.4
2022-08-16T12:01:20.603Z,-25.7
2022-08-16T12:03:31.630Z,-25.8
2022-08-16T12:05:23.719Z,-25.5
2022-08-16T12:07:25.166Z,-25.4
2022-08-16T12:09:29.442Z,-25.3
2022-08-16T12:11:28.127Z,-25.7
2022-08-16T12:13:29.745Z,-25.7
2022-08-16T12:17:32.181Z,-25.5
2022-08-16T12:19:34.122Z,-25.4
2022-08-16T12:21:35.741Z,-25.7
2022-08-16T12:23:35.632Z,-25.4
2022-08-16T12:27:39.340Z,-25.5
2022-08-16T12:32:26.985Z,-25.5
2022-08-16T12:34:29.096Z,-25.5
2022-08-16T12:36:29.998Z,-25.5
2022-08-16T12:38:38.480Z,-25.5
2022-08-16T12:40:30.235Z,-25.2
2022-08-16T12:42:34.616Z,-25.6
2022-08-16T12:44:31.989Z,-25.2
2022-08-16T12:46:33.540Z,-25.6
2022-08-16T12:48:35.123Z,-25.5
2022-08-16T12:50:36.194Z,-25.5
2022-08-16T12:52:40.010Z,-25.5
2022-08-16T12:54:39.051Z,-25.6
2022-08-16T12:56:40.682Z,-25.6
2022-08-16T12:58:47.762Z,-25.5
2022-08-16T13:00:43.381Z,-25.8
2022-08-16T13:04:46.423Z,-25.3
2022-08-16T13:06:47.983Z,-25.7
2022-08-16T13:08:49.229Z,-25.6
2022-08-16T13:10:50.649Z,-25.2
2022-08-16T13:16:53.485Z,-25.5
2022-08-16T13:18:55.199Z,-25.5
2022-08-16T13:20:56.045Z,-25.2
2022-08-16T13:22:57.581Z,-25.3
2022-08-16T13:24:58.850Z,-25.6
2022-08-16T13:27:00.506Z,-25.1
2022-08-16T13:31:03.177Z,-25.8
2022-08-16T13:33:10.479Z,-25.6
2022-08-16T13:35:05.916Z,-25.6
2022-08-16T13:37:07.216Z,-25.4
2022-08-16T13:39:08.642Z,-25.4
2022-08-16T13:41:10.061Z,-25.7
2022-08-16T13:43:11.375Z,63.4
2022-08-16T13:45:15.524Z,61.1
2022-08-16T13:47:13.886Z,59.3
2022-08-16T13:49:15.551Z,58.1
2022-08-16T13:53:17.844Z,54.7
2022-08-16T13:55:19.415Z,52.5
2022-08-16T13:57:21.144Z,51.6
2022-08-16T13:59:22.521Z,49
2022-08-16T14:01:24.027Z,47.6
2022-08-16T14:03:25.592Z,45.9
2022-08-16T14:05:26.518Z,43.3
2022-08-16T14:07:27.558Z,41.1
2022-08-16T14:09:28.603Z,40.5
2022-08-16T14:13:30.932Z,35.8
2022-08-16T14:15:32.647Z,33.09
2022-08-16T14:18:01.742Z,31.8
2022-08-16T14:19:35.152Z,29.7
2022-08-16T14:23:37.324Z,27
2022-08-16T14:25:38.205Z,25
2022-08-16T14:27:42.093Z,22.9
2022-08-16T14:29:40.541Z,21.8
2022-08-16T14:31:42.066Z,19.2
2022-08-16T14:33:43.489Z,19.2
2022-08-16T14:35:48.645Z,16.2
2022-08-16T14:37:45.636Z,17.29
2022-08-16T14:39:46.480Z,15.4
2022-08-16T14:41:47.666Z,16.2
2022-08-16T14:45:50.793Z,12.1
2022-08-16T14:47:52.141Z,11.1
2022-08-16T14:49:53.806Z,9.6
2022-08-16T14:51:55.007Z,10.7
2022-08-16T14:57:58.238Z,7.7
2022-08-16T15:00:04.874Z,-25.5
2022-08-16T15:02:01.114Z,-25.4
2022-08-16T15:04:02.231Z,-25.7
2022-08-16T15:06:03.068Z,-25.3
2022-08-16T15:08:05.108Z,-25.5
2022-08-16T15:10:06.333Z,-25.5
2022-08-16T15:12:07.627Z,-25.8
2022-08-16T15:14:08.782Z,-25.5
2022-08-16T15:16:09.897Z,-25.5
2022-08-16T15:18:11.891Z,-25.7
2022-08-16T15:22:13.962Z,-25.4
2022-08-16T15:24:16.584Z,-25.5
2022-08-16T15:26:18.831Z,-25.5
2022-08-16T15:28:24.216Z,-25.6
2022-08-16T15:30:47.725Z,-25.4
2022-08-16T15:32:26.492Z,-25.6
2022-08-16T15:34:22.077Z,-25.7
2022-08-16T15:36:22.199Z,-25.4
2022-08-16T15:38:31.816Z,-25.3
2022-08-16T15:40:26.924Z,-25.5
2022-08-16T15:42:27.184Z,-25.4
2022-08-16T15:44:27.167Z,-25.4
2022-08-16T15:46:34.739Z,-25.4
2022-08-16T15:48:29.363Z,-25.4
2022-08-16T15:50:30.801Z,-25.5
2022-08-16T15:56:34.709Z,-25.5
2022-08-16T15:58:38.581Z,-25.6
2022-08-16T16:00:37.563Z,-25.7
2022-08-16T16:04:39.253Z,-25.5
2022-08-16T16:06:40.390Z,-25.3
2022-08-16T16:08:41.646Z,-25.4
2022-08-16T16:10:42.267Z,-25.5
2022-08-16T16:12:50.632Z,-25.4
2022-08-16T16:14:44.290Z,-25.3
2022-08-16T16:16:45.831Z,-25.5
2022-08-16T16:18:48.694Z,-25.5
2022-08-16T16:20:47.722Z,-25.6
2022-08-16T16:22:48.712Z,-25.5
2022-08-16T16:24:50.012Z,-25.4
2022-08-16T16:26:51.390Z,-25.5
2022-08-16T16:29:06.974Z,-25.4
2022-08-16T16:30:56.591Z,-25.2
2022-08-16T16:32:54.979Z,-25.7
2022-08-16T16:38:58.459Z,-25.7
2022-08-16T16:41:00.091Z,-25.8
2022-08-16T16:43:01.435Z,-25.5
2022-08-16T16:45:02.290Z,-25.5
2022-08-16T16:47:03.610Z,-25.3
2022-08-16T16:49:04.646Z,-25.5
2022-08-16T16:51:09.337Z,-25.5
2022-08-16T16:53:16.960Z,-25.6
2022-08-16T16:55:07.750Z,-25.6
2022-08-16T16:57:09.046Z,-25.5
2022-08-16T16:59:10.391Z,-25.6
2022-08-16T17:01:11.367Z,-25.4
2022-08-16T17:03:15.346Z,-25.6
2022-08-16T17:05:14.396Z,-25.6
2022-08-16T17:07:16.067Z,-25.3
2022-08-16T17:09:16.943Z,-25.8
2022-08-16T17:11:18.533Z,-25.7
2022-08-16T17:13:19.775Z,-25.5
2022-08-16T17:15:20.727Z,-25.3
2022-08-16T17:17:21.825Z,-25.6
2022-08-16T17:19:23.800Z,-25.4
2022-08-16T17:21:24.000Z,-25.7
2022-08-16T17:23:57.722Z,-25.4
2022-08-16T17:25:26.214Z,-25.5
2022-08-16T17:27:32.311Z,-25.7
2022-08-16T17:29:30.710Z,-25.6
2022-08-16T17:31:38.562Z,-25.7
2022-08-16T17:33:37.113Z,-25.6
2022-08-16T17:37:34.143Z,-25.5
2022-08-16T17:39:34.569Z,-25.6
2022-08-16T17:41:36.172Z,-25.5
2022-08-16T17:43:36.991Z,-25.5
2022-08-16T17:45:38.239Z,-25.4
2022-08-16T17:47:39.229Z,-25.5
2022-08-16T17:49:40.430Z,-25.5
2022-08-16T17:51:41.397Z,-25.4
2022-08-16T17:53:44.912Z,-25.6
2022-08-16T17:55:44.398Z,-25.5
2022-08-16T17:57:47.510Z,-25.5
2022-08-16T17:59:46.629Z,-25.7
2022-08-16T18:01:48.438Z,-25.7
2022-08-16T18:04:03.447Z,-25.5
2022-08-16T18:05:50.816Z,-25.6
2022-08-16T18:07:51.658Z,-25.6
2022-08-16T18:09:53.162Z,-25.8
2022-08-16T18:13:56.097Z,-25.6
2022-08-16T18:15:57.463Z,-25.3
2022-08-16T18:17:58.863Z,-25.5
2022-08-16T18:20:00.451Z,-25.7
2022-08-16T18:22:01.965Z,-25.6
2022-08-16T18:24:03.444Z,-25.7
2022-08-16T18:26:05.117Z,-25.5
2022-08-16T18:28:06.773Z,-25.5
2022-08-16T18:30:08.438Z,-25.4
2022-08-16T18:36:20.337Z,-25.8
2022-08-16T18:38:13.266Z,-25.4
2022-08-16T18:40:14.623Z,-25.6
2022-08-16T18:42:15.979Z,-25.6
2022-08-16T18:44:24.569Z,-25.5
2022-08-16T18:46:18.398Z,-25.7
2022-08-16T18:48:20.171Z,-25.5
2022-08-16T18:50:21.265Z,-25.5
2022-08-16T18:54:23.700Z,-25.4
2022-08-16T18:56:54.443Z,-25.5
2022-08-16T19:02:42.877Z,-25.5
2022-08-16T19:06:31.106Z,-25.8
2022-08-16T19:08:32.672Z,-25.7
2022-08-16T19:10:34.311Z,-25.4
2022-08-16T19:12:47.170Z,-25.6
2022-08-16T19:13:19.023Z,-25.6
2022-08-16T19:17:21.597Z,-25.5
2022-08-16T19:19:23.217Z,-25.4
2022-08-16T19:21:24.185Z,-25.6
2022-08-16T19:23:25.493Z,-25.7
2022-08-16T19:25:28.386Z,-25.7
2022-08-16T19:27:32.556Z,-25.6
2022-08-16T19:29:29.958Z,-25.5
2022-08-16T19:31:31.581Z,-25.4
2022-08-16T19:33:33.169Z,-25.6
2022-08-16T19:35:34.806Z,-25.8
2022-08-16T19:37:46.201Z,-25.7
2022-08-16T19:39:37.578Z,-25.5
2022-08-16T19:41:39.045Z,-25.5
2022-08-16T19:43:39.968Z,-25.7
2022-08-16T19:45:45.451Z,-25.6
2022-08-16T19:47:42.502Z,-25.7
2022-08-16T19:49:44.005Z,-25.6
2022-08-16T19:51:45.581Z,-25.5
2022-08-16T19:53:46.449Z,-25.6
2022-08-16T19:55:47.699Z,-25.5
2022-08-16T19:57:49.355Z,-25.6
2022-08-16T19:59:50.309Z,-25.8
2022-08-16T20:01:52.353Z,-25.4
2022-08-16T20:03:53.185Z,-25.4
2022-08-16T20:05:54.114Z,-25.5
2022-08-16T20:11:57.659Z,-25.7
2022-08-16T20:13:58.872Z,-25.4
2022-08-16T20:16:00.147Z,-25.9
2022-08-16T20:18:01.357Z,-25.6
2022-08-16T20:20:02.313Z,-25.9
2022-08-16T20:22:04.974Z,-25.6
2022-08-16T20:28:08.138Z,-25.5
2022-08-16T20:30:09.163Z,-25.2
2022-08-16T20:32:10.546Z,-25.4
2022-08-16T20:38:14.527Z,-25.6
2022-08-16T20:40:18.275Z,-25.8
2022-08-16T20:42:16.575Z,-25.6
2022-08-16T20:44:17.543Z,-25.4
2022-08-16T20:46:18.383Z,-25.7
2022-08-16T20:48:20.088Z,-25.5
2022-08-16T20:52:22.184Z,-25.5
2022-08-16T20:54:24.011Z,-25.8
2022-08-16T20:56:25.189Z,-25.4
2022-08-16T21:00:28.750Z,-25.6
2022-08-16T21:02:29.275Z,-25.8
2022-08-16T21:04:30.768Z,-25.5
2022-08-16T21:06:31.661Z,-25.6
2022-08-16T21:08:52.917Z,-25.6
2022-08-16T21:10:33.820Z,-25.5
2022-08-16T21:12:37.740Z,-25.5
2022-08-16T21:14:36.334Z,-25.8
2022-08-16T21:16:37.798Z,-25.8
2022-08-16T21:18:38.876Z,-25.6
2022-08-16T21:20:40.655Z,-25.8
2022-08-16T21:22:42.103Z,-25.6
2022-08-16T21:24:43.566Z,-25.6
2022-08-16T21:26:51.012Z,-25.5
2022-08-16T21:28:46.539Z,-25.6
2022-08-16T21:34:50.972Z,-25.5
2022-08-16T21:40:54.782Z,-25.5
2022-08-16T21:42:56.606Z,-25.4
2022-08-16T21:44:58.323Z,-25.7
2022-08-16T21:47:00.018Z,-25.7
2022-08-16T21:49:01.045Z,-25.5
2022-08-16T21:51:02.162Z,-25.7
2022-08-16T21:53:03.051Z,-25.5
2022-08-16T21:55:03.999Z,-25.6
2022-08-16T21:57:08.752Z,-25.3
2022-08-16T21:59:06.649Z,-25.7
2022-08-16T22:03:10.038Z,-25.6
2022-08-16T22:05:11.751Z,-25.7
2022-08-16T22:07:13.022Z,-25.6
2022-08-16T22:09:13.888Z,-25.7
2022-08-16T22:11:15.690Z,-25.6
2022-08-16T22:13:16.843Z,-25.7
2022-08-16T22:15:22.129Z,-25.5
2022-08-16T22:17:20.027Z,-25.6
2022-08-16T22:19:21.427Z,-25.6
2022-08-16T22:21:22.628Z,-25.7
2022-08-16T22:27:27.504Z,-25.5
2022-08-16T22:29:28.898Z,-25.6
2022-08-16T22:31:30.584Z,-25.8
2022-08-16T22:33:31.946Z,-25.7
2022-08-16T22:35:33.635Z,-25.6
2022-08-16T22:37:34.809Z,-25.4
2022-08-16T22:39:36.020Z,-25.7
2022-08-16T22:41:37.847Z,-25.6
2022-08-16T22:43:39.263Z,-25.6
2022-08-16T22:45:40.327Z,-25.6
2022-08-16T22:49:43.743Z,-25.5
2022-08-16T22:51:45.329Z,-25.9
2022-08-16T22:55:47.788Z,-25.4
2022-08-16T22:57:49.353Z,-25.8
2022-08-16T22:59:52.619Z,-25.7
2022-08-16T23:01:51.994Z,-25.6
2022-08-16T23:05:55.346Z,-25.8
2022-08-16T23:07:57.225Z,-25.7
2022-08-16T23:09:58.205Z,-25.6
2022-08-16T23:11:59.243Z,-25.5
2022-08-16T23:16:02.598Z,-25.6
2022-08-16T23:18:04.205Z,-25.6
2022-08-16T23:24:08.169Z,-25.7
2022-08-16T23:26:35.942Z,-25.6
2022-08-16T23:28:11.175Z,-25.6
2022-08-16T23:30:12.631Z,-25.7
2022-08-16T23:32:13.982Z,-25.8
2022-08-16T23:34:14.967Z,-25.6
2022-08-16T23:36:16.508Z,-25.7
2022-08-16T23:38:38.612Z,-25.5
2022-08-16T23:40:19.346Z,-25.7
2022-08-16T23:42:42.127Z,-25.6
2022-08-16T23:44:41.858Z,-25.8
2022-08-16T23:46:22.850Z,-25.7
2022-08-16T23:48:24.083Z,-25.7
2022-08-16T23:50:25.866Z,-25.8
2022-08-16T23:52:38.391Z,-25.7
2022-08-16T23:54:28.615Z,-25.5
2022-08-16T23:56:30.064Z,-25.7
2022-08-16T23:58:31.256Z,-25.5
